createdAt,value
2022-09-10T00:02:07.750Z,1.40
2022-09-10T00:04:34.367Z,1.73
2022-09-10T00:07:01.719Z,1.80
2022-09-10T00:09:28.905Z,1.70
2022-09-10T00:11:56.842Z,2.20
2022-09-10T00:14:24.346Z,1.70
2022-09-10T00:16:52.084Z,2.30
2022-09-10T00:19:19.395Z,1.70
2022-09-10T00:21:46.781Z,1.92
2022-09-10T00:24:14.050Z,1.38
2022-09-10T00:26:41.425Z,1.38
2022-09-10T00:29:10.476Z,1.80
2022-09-10T00:31:38.545Z,1.85
2022-09-10T00:34:06.164Z,1.75
2022-09-10T00:36:37.023Z,1.63
2022-09-10T00:39:07.575Z,1.63
2022-09-10T00:41:37.762Z,1.85
2022-09-10T00:44:26.074Z,2.17
2022-09-10T00:46:55.686Z,2.08
2022-09-10T00:49:33.697Z,2.50
2022-09-10T00:52:01.878Z,2.00
2022-09-10T00:54:30.724Z,1.90
2022-09-10T00:57:02.808Z,2.17
2022-09-10T00:59:30.903Z,1.97
2022-09-10T01:01:59.946Z,2.50
2022-09-10T01:04:28.593Z,2.25
2022-09-10T01:06:56.371Z,2.15
2022-09-10T01:09:24.362Z,2.25
2022-09-10T01:12:04.594Z,2.60
2022-09-10T01:14:56.353Z,2.67
2022-09-10T01:17:47.450Z,3.08
2022-09-10T01:20:32.870Z,2.47
2022-09-10T01:23:41.545Z,2.70
2022-09-10T01:26:33.202Z,3.05
2022-09-10T01:29:18.000Z,2.60
2022-09-10T01:31:58.811Z,2.50
2022-09-10T01:34:43.726Z,2.67
2022-09-10T01:37:21.399Z,3.00
2022-09-10T01:39:49.660Z,3.80
2022-09-10T01:42:17.444Z,3.42
2022-09-10T01:44:48.443Z,2.88
2022-09-10T01:48:01.109Z,3.10
2022-09-10T01:50:35.274Z,3.33
2022-09-10T01:53:16.830Z,3.25
2022-09-10T01:56:41.414Z,3.75
2022-09-10T01:59:43.511Z,3.45
2022-09-10T02:03:00.363Z,3.40
2022-09-10T02:05:33.594Z,3.60
2022-09-10T02:08:24.091Z,3.50
2022-09-10T02:10:59.722Z,3.60
2022-09-10T02:13:31.200Z,3.30
2022-09-10T02:16:31.959Z,3.97
2022-09-10T02:19:01.116Z,4.07
2022-09-10T02:21:28.268Z,3.70
2022-09-10T02:23:59.629Z,4.72
2022-09-10T02:26:27.589Z,4.15
2022-09-10T02:28:55.028Z,3.88
2022-09-10T02:31:22.662Z,4.22
2022-09-10T02:33:51.394Z,4.68
2022-09-10T02:36:18.821Z,4.35
2022-09-10T02:38:46.145Z,4.30
2022-09-10T02:41:14.607Z,3.88
2022-09-10T02:43:42.503Z,4.32
2022-09-10T02:46:10.238Z,4.95
2022-09-10T02:48:38.916Z,4.63
2022-09-10T02:51:07.351Z,3.97
2022-09-10T02:53:36.465Z,5.07
2022-09-10T02:56:05.187Z,4.07
2022-09-10T02:58:32.914Z,4.53
2022-09-10T03:01:21.960Z,4.68
2022-09-10T03:03:58.189Z,4.97
2022-09-10T03:06:26.603Z,4.47
2022-09-10T03:08:57.469Z,4.90
2022-09-10T03:11:27.152Z,4.97
2022-09-10T03:13:54.712Z,4.70
2022-09-10T03:16:24.065Z,4.25
2022-09-10T03:18:52.073Z,4.32
2022-09-10T03:21:21.571Z,5.05
2022-09-10T03:23:50.528Z,4.88
2022-09-10T03:26:25.173Z,4.70
2022-09-10T03:28:53.518Z,4.93
2022-09-10T03:31:22.575Z,4.43
2022-09-10T03:33:50.965Z,5.07
2022-09-10T03:36:18.516Z,5.75
2022-09-10T03:38:47.821Z,5.93
2022-09-10T03:41:15.036Z,5.43
2022-09-10T03:43:41.723Z,4.97
2022-09-10T03:46:12.273Z,5.97
2022-09-10T03:48:43.490Z,6.65
2022-09-10T03:51:11.129Z,6.03
2022-09-10T03:53:38.798Z,5.30
2022-09-10T03:56:07.729Z,6.00
2022-09-10T03:58:35.655Z,5.72
2022-09-10T04:01:04.590Z,5.78
2022-09-10T04:03:34.521Z,5.75
2022-09-10T04:06:01.798Z,5.75
2022-09-10T04:08:28.462Z,6.63
2022-09-10T04:11:01.782Z,6.70
2022-09-10T04:15:56.282Z,6.57
2022-09-10T04:18:23.599Z,6.90
2022-09-10T04:20:50.899Z,7.07
2022-09-10T04:23:17.586Z,7.72
2022-09-10T04:25:46.726Z,8.95
2022-09-10T04:28:13.508Z,7.85
2022-09-10T04:30:40.755Z,8.90
2022-09-10T04:33:09.450Z,8.63
2022-09-10T04:35:36.448Z,9.10
2022-09-10T04:38:07.023Z,9.60
2022-09-10T04:40:37.213Z,9.50
2022-09-10T04:43:04.809Z,9.18
2022-09-10T04:45:35.364Z,9.65
2022-09-10T04:48:06.803Z,9.27
2022-09-10T04:50:35.796Z,9.10
2022-09-10T04:53:13.531Z,10.40
2022-09-10T04:55:43.339Z,9.63
2022-09-10T04:58:10.994Z,9.63
2022-09-10T05:00:39.538Z,9.93
2022-09-10T05:03:07.734Z,10.57
2022-09-10T05:05:36.710Z,10.70
2022-09-10T05:08:05.589Z,9.93
2022-09-10T05:10:33.240Z,9.52
2022-09-10T05:13:00.829Z,10.00
2022-09-10T05:15:28.489Z,9.45
2022-09-10T05:17:56.320Z,10.02
2022-09-10T05:20:23.391Z,9.60
2022-09-10T05:22:55.198Z,9.63
2022-09-10T05:25:24.303Z,9.35
2022-09-10T05:27:51.722Z,9.98
2022-09-10T05:30:21.202Z,10.68
2022-09-10T05:32:48.758Z,9.88
2022-09-10T05:35:16.065Z,11.27
2022-09-10T05:37:46.178Z,10.52
2022-09-10T05:40:14.792Z,10.25
2022-09-10T05:42:42.835Z,10.68
2022-09-10T05:45:10.371Z,11.05
2022-09-10T05:47:37.854Z,11.50
2022-09-10T05:50:06.922Z,11.10
2022-09-10T05:52:34.416Z,10.70
2022-09-10T05:55:05.757Z,11.90
2022-09-10T05:57:33.159Z,11.73
2022-09-10T06:00:01.220Z,11.77
2022-09-10T06:02:30.267Z,10.82
2022-09-10T06:05:00.464Z,11.32
2022-09-10T06:07:28.625Z,11.93
2022-09-10T06:09:57.448Z,12.25
2022-09-10T06:12:38.108Z,11.40
2022-09-10T06:15:07.083Z,12.40
2022-09-10T06:17:34.110Z,12.23
2022-09-10T06:20:02.413Z,12.00
2022-09-10T06:22:33.063Z,11.35
2022-09-10T06:25:00.008Z,11.23
2022-09-10T06:27:26.924Z,12.45
2022-09-10T06:29:56.266Z,11.73
2022-09-10T06:32:23.971Z,12.07
2022-09-10T06:34:51.120Z,12.73
2022-09-10T06:37:19.839Z,12.00
2022-09-10T06:39:46.763Z,12.15
2022-09-10T06:42:14.557Z,12.23
2022-09-10T06:44:55.418Z,12.20
2022-09-10T06:50:17.044Z,12.32
2022-09-10T06:52:45.483Z,13.00
2022-09-10T06:55:14.779Z,13.27
2022-09-10T06:57:44.359Z,13.35
2022-09-10T07:00:14.374Z,13.60
2022-09-10T07:02:43.861Z,13.60
2022-09-10T07:05:11.750Z,14.93
2022-09-10T07:07:40.750Z,14.85
2022-09-10T07:10:09.127Z,14.85
2022-09-10T07:12:36.138Z,14.25
2022-09-10T07:15:06.275Z,14.38
2022-09-10T07:17:35.879Z,14.90
2022-09-10T07:20:03.894Z,13.60
2022-09-10T07:22:42.842Z,14.00
2022-09-10T07:25:11.571Z,13.98
2022-09-10T07:27:53.749Z,13.77
2022-09-10T07:30:22.501Z,14.35
2022-09-10T07:32:50.810Z,14.95
2022-09-10T07:35:22.429Z,13.65
2022-09-10T07:37:50.074Z,14.07
2022-09-10T07:40:19.752Z,13.48
2022-09-10T07:42:46.386Z,12.60
2022-09-10T07:45:15.603Z,13.50
2022-09-10T07:47:44.866Z,12.93
2022-09-10T07:50:12.433Z,13.52
2022-09-10T07:52:40.395Z,14.50
2022-09-10T07:55:07.668Z,14.15
2022-09-10T07:57:38.008Z,14.98
2022-09-10T08:00:11.879Z,14.38
2022-09-10T08:02:42.843Z,15.52
2022-09-10T08:05:16.799Z,14.10
2022-09-10T08:07:44.933Z,15.10
2022-09-10T08:10:12.288Z,14.95
2022-09-10T08:12:40.996Z,15.05
2022-09-10T08:15:10.104Z,14.98
2022-09-10T08:17:39.961Z,15.50
2022-09-10T08:20:09.812Z,15.82
2022-09-10T08:22:38.638Z,15.85
2022-09-10T08:25:06.184Z,16.90
2022-09-10T08:27:34.237Z,16.20
2022-09-10T08:30:04.344Z,17.30
2022-09-10T08:32:31.574Z,17.48
2022-09-10T08:34:58.480Z,17.80
2022-09-10T08:37:27.435Z,17.20
2022-09-10T08:39:54.552Z,17.83
2022-09-10T08:42:35.155Z,18.77
2022-09-10T08:45:10.494Z,19.50
2022-09-10T08:47:53.485Z,19.55
2022-09-10T08:50:48.066Z,20.17
2022-09-10T08:53:28.674Z,19.55
2022-09-10T08:56:08.323Z,19.60
2022-09-10T08:58:47.797Z,20.10
2022-09-10T09:01:24.885Z,20.77
2022-09-10T09:03:55.426Z,20.98
2022-09-10T09:06:48.087Z,21.35
2022-09-10T09:09:16.090Z,21.85
2022-09-10T09:12:05.667Z,21.10
2022-09-10T09:14:47.308Z,21.67
2022-09-10T09:17:49.551Z,21.90
2022-09-10T09:20:25.632Z,21.17
2022-09-10T09:23:19.491Z,19.98
2022-09-10T09:25:48.063Z,19.90
2022-09-10T09:28:31.842Z,20.73
2022-09-10T09:33:30.373Z,18.85
2022-09-10T09:36:01.681Z,17.77
2022-09-10T09:38:37.407Z,18.02
2022-09-10T09:41:23.019Z,16.90
2022-09-10T09:44:02.326Z,18.80
2022-09-10T09:46:29.983Z,17.27
2022-09-10T09:49:02.210Z,17.73
2022-09-10T09:51:35.093Z,18.52
2022-09-10T09:57:02.786Z,20.17
2022-09-10T09:59:32.146Z,20.92
2022-09-10T10:02:05.581Z,21.55
2022-09-10T10:04:36.993Z,23.77
2022-09-10T10:07:06.302Z,24.27
2022-09-10T10:09:38.896Z,23.75
2022-09-10T10:12:07.095Z,25.02
2022-09-10T10:14:39.108Z,24.92
2022-09-10T10:17:39.596Z,25.40
2022-09-10T10:20:12.634Z,24.83
2022-09-10T10:25:41.463Z,26.80
2022-09-10T10:28:27.730Z,26.92
2022-09-10T10:30:57.661Z,27.15
2022-09-10T10:33:30.655Z,27.83
2022-09-10T10:36:11.370Z,28.33
2022-09-10T10:38:41.381Z,28.73
2022-09-10T10:41:43.959Z,27.75
2022-09-10T10:44:23.983Z,24.05
2022-09-10T10:46:59.855Z,23.38
2022-09-10T10:49:48.059Z,21.52
2022-09-10T10:52:35.102Z,20.55
2022-09-10T10:55:36.030Z,18.75
2022-09-10T10:58:28.886Z,19.27
2022-09-10T11:01:05.431Z,20.63
2022-09-10T11:03:42.679Z,23.67
2022-09-10T11:06:17.947Z,24.63
2022-09-10T11:09:05.824Z,27.80
2022-09-10T11:12:11.239Z,26.27
2022-09-10T11:15:00.837Z,27.40
2022-09-10T11:17:35.629Z,26.30
2022-09-10T11:20:28.432Z,23.95
2022-09-10T11:23:30.001Z,24.05
2022-09-10T11:26:13.020Z,22.08
2022-09-10T11:28:54.188Z,24.40
2022-09-10T11:31:35.696Z,23.35
2022-09-10T11:34:24.701Z,24.17
2022-09-10T11:37:12.245Z,23.75
2022-09-10T11:39:45.248Z,23.05
2022-09-10T11:42:19.468Z,23.27
2022-09-10T11:45:00.761Z,25.30
2022-09-10T11:47:42.626Z,23.48
2022-09-10T11:50:36.051Z,20.75
2022-09-10T11:53:07.191Z,19.17
2022-09-10T11:56:00.094Z,19.40
2022-09-10T11:58:44.818Z,18.90
2022-09-10T12:01:23.669Z,16.67
2022-09-10T12:04:28.314Z,16.90
2022-09-10T12:07:04.506Z,16.15
2022-09-10T12:10:00.761Z,16.48
2022-09-10T12:12:38.443Z,15.30
2022-09-10T12:15:15.625Z,16.45
2022-09-10T12:17:45.869Z,16.30
2022-09-10T12:20:29.865Z,14.95
2022-09-10T12:22:57.639Z,15.10
2022-09-10T12:25:33.213Z,15.65
2022-09-10T12:28:05.267Z,16.05
2022-09-10T12:30:34.989Z,15.70
2022-09-10T12:33:13.899Z,15.77
2022-09-10T12:35:49.133Z,15.75
2022-09-10T12:38:50.396Z,13.63
2022-09-10T12:41:23.100Z,13.95
2022-09-10T12:43:53.192Z,13.75
2022-09-10T12:46:22.524Z,15.00
2022-09-10T12:49:12.496Z,14.00
2022-09-10T12:51:56.559Z,15.43
2022-09-10T12:54:40.588Z,15.27
2022-09-10T12:57:29.822Z,15.85
2022-09-10T13:00:25.651Z,16.35
2022-09-10T13:02:59.886Z,14.10
2022-09-10T13:05:50.313Z,16.23
2022-09-10T13:08:53.621Z,17.85
2022-09-10T13:11:23.693Z,16.60
2022-09-10T13:14:01.621Z,18.33
2022-09-10T13:16:28.239Z,19.73
2022-09-10T13:19:13.728Z,19.00
2022-09-10T13:21:40.578Z,18.27
2022-09-10T13:24:38.603Z,19.38
2022-09-10T13:27:11.106Z,21.15
2022-09-10T13:29:40.930Z,22.10
2022-09-10T13:35:38.470Z,22.42
2022-09-10T13:38:32.966Z,21.38
2022-09-10T13:41:23.762Z,21.00
2022-09-10T13:44:03.473Z,19.02
2022-09-10T13:46:37.718Z,20.33
2022-09-10T13:49:29.049Z,21.17
2022-09-10T13:51:59.084Z,21.38
2022-09-10T13:54:51.432Z,21.15
2022-09-10T13:57:29.854Z,21.38
2022-09-10T14:00:07.423Z,21.40
2022-09-10T14:02:45.990Z,20.83
2022-09-10T14:05:23.102Z,21.00
2022-09-10T14:07:52.518Z,19.10
2022-09-10T14:10:19.541Z,18.73
2022-09-10T14:12:50.048Z,18.05
2022-09-10T14:15:21.959Z,17.58
2022-09-10T14:17:54.597Z,16.88
2022-09-10T14:20:33.691Z,16.10
2022-09-10T14:23:12.887Z,15.00
2022-09-10T14:25:42.545Z,14.68
2022-09-10T14:28:19.195Z,14.48
2022-09-10T14:30:49.046Z,13.93
2022-09-10T14:33:35.678Z,15.35
2022-09-10T14:36:17.291Z,14.90
2022-09-10T14:38:51.842Z,14.02
2022-09-10T14:41:22.097Z,15.00
2022-09-10T14:43:49.950Z,14.93
2022-09-10T14:46:46.042Z,14.98
2022-09-10T14:49:17.981Z,15.18
2022-09-10T14:51:45.157Z,15.13
2022-09-10T14:54:12.755Z,14.40
2022-09-10T14:56:45.987Z,14.85
2022-09-10T14:59:33.407Z,13.23
2022-09-10T15:02:01.920Z,7.70
2022-09-10T15:04:29.988Z,5.30
2022-09-10T15:06:59.296Z,4.25
2022-09-10T15:09:28.187Z,3.92
2022-09-10T15:12:02.022Z,2.60
2022-09-10T15:14:29.397Z,2.15
2022-09-10T15:16:56.611Z,2.20
2022-09-10T15:19:23.240Z,2.33
2022-09-10T15:21:50.828Z,2.10
2022-09-10T15:24:19.972Z,2.42
2022-09-10T15:26:47.674Z,2.55
2022-09-10T15:29:14.716Z,3.25
2022-09-10T15:31:43.677Z,3.20
2022-09-10T15:34:11.359Z,3.95
2022-09-10T15:36:40.161Z,4.70
2022-09-10T15:39:08.695Z,4.72
2022-09-10T15:41:35.371Z,5.32
2022-09-10T15:44:03.187Z,6.05
2022-09-10T15:46:29.860Z,6.68
2022-09-10T15:48:59.334Z,7.70
2022-09-10T15:51:26.818Z,8.13
2022-09-10T15:53:54.259Z,8.48
2022-09-10T15:56:24.796Z,9.68
2022-09-10T15:58:54.947Z,10.73
2022-09-10T16:01:24.135Z,11.70
2022-09-10T16:03:55.238Z,12.18
2022-09-10T16:06:23.897Z,13.65
2022-09-10T16:09:01.896Z,13.70
2022-09-10T16:11:33.455Z,13.55
2022-09-10T16:14:04.668Z,15.02
2022-09-10T16:16:32.591Z,15.32
2022-09-10T16:19:00.284Z,16.92
2022-09-10T16:21:29.588Z,17.48
2022-09-10T16:23:58.238Z,17.85
2022-09-10T16:26:28.207Z,18.63
2022-09-10T16:28:57.246Z,18.85
2022-09-10T16:31:32.931Z,17.42
2022-09-10T16:34:03.152Z,18.50
2022-09-10T16:36:32.375Z,18.58
2022-09-10T16:39:02.863Z,18.65
2022-09-10T16:41:29.860Z,19.10
2022-09-10T16:44:00.436Z,20.75
2022-09-10T16:46:27.815Z,19.00
2022-09-10T16:48:55.779Z,18.60
2022-09-10T16:51:24.407Z,18.00
2022-09-10T16:54:02.724Z,19.25
2022-09-10T16:56:38.182Z,19.60
2022-09-10T16:59:09.276Z,19.00
2022-09-10T17:01:37.115Z,19.67
2022-09-10T17:04:05.130Z,19.75
2022-09-10T17:06:31.823Z,19.70
2022-09-10T17:09:00.464Z,20.17
2022-09-10T17:11:32.822Z,19.90
2022-09-10T17:14:03.256Z,14.45
2022-09-10T17:16:39.697Z,19.17
2022-09-10T17:19:14.977Z,19.42
2022-09-10T17:21:44.446Z,19.63
2022-09-10T17:24:12.544Z,18.63
2022-09-10T17:26:40.407Z,19.60
2022-09-10T17:29:15.868Z,18.73
2022-09-10T17:31:43.678Z,19.77
2022-09-10T17:34:14.170Z,19.27
2022-09-10T17:36:45.479Z,19.05
2022-09-10T17:39:12.874Z,16.90
2022-09-10T17:41:40.091Z,18.90
2022-09-10T17:44:07.814Z,18.35
2022-09-10T17:46:35.994Z,18.73
2022-09-10T17:49:03.363Z,18.67
2022-09-10T17:51:32.322Z,20.17
2022-09-10T17:53:59.282Z,19.38
2022-09-10T17:56:26.665Z,19.67
2022-09-10T17:59:02.329Z,20.67
2022-09-10T18:01:31.781Z,20.95
2022-09-10T18:03:58.479Z,22.52
2022-09-10T18:06:28.829Z,21.90
2022-09-10T18:08:58.765Z,22.67
2022-09-10T18:11:28.087Z,22.58
2022-09-10T18:13:56.061Z,23.10
2022-09-10T18:16:26.605Z,23.63
2022-09-10T18:18:58.136Z,22.02
2022-09-10T18:21:36.314Z,23.75
2022-09-10T18:24:10.007Z,23.45
2022-09-10T18:26:39.330Z,23.80
2022-09-10T18:29:29.695Z,26.00
2022-09-10T18:32:00.500Z,27.33
2022-09-10T18:34:29.434Z,28.75
2022-09-10T18:36:58.714Z,31.30
2022-09-10T18:39:27.794Z,30.70
2022-09-10T18:41:55.243Z,28.80
2022-09-10T18:44:25.016Z,29.83
2022-09-10T18:46:55.908Z,27.33
2022-09-10T18:49:26.588Z,27.83
2022-09-10T18:51:54.832Z,25.40
2022-09-10T18:54:23.069Z,25.67
2022-09-10T18:56:50.785Z,27.23
2022-09-10T18:59:20.040Z,25.92
2022-09-10T19:01:48.292Z,26.05
2022-09-10T19:04:18.079Z,25.92
2022-09-10T19:06:46.785Z,26.25
2022-09-10T19:09:16.451Z,24.67
2022-09-10T19:11:45.189Z,26.60
2022-09-10T19:14:19.083Z,29.30
2022-09-10T19:16:47.348Z,28.75
2022-09-10T19:19:18.320Z,27.60
2022-09-10T19:21:53.524Z,26.38
2022-09-10T19:24:32.781Z,24.90
2022-09-10T19:27:07.323Z,24.52
2022-09-10T19:29:34.040Z,24.50
2022-09-10T19:32:00.709Z,22.92
2022-09-10T19:34:27.835Z,22.25
2022-09-10T19:36:55.576Z,22.73
2022-09-10T19:39:22.335Z,21.48
2022-09-10T19:41:50.023Z,20.77
2022-09-10T19:44:18.056Z,21.40
2022-09-10T19:46:45.163Z,22.38
2022-09-10T19:49:12.552Z,22.67
2022-09-10T19:51:40.571Z,22.20
2022-09-10T19:54:07.712Z,22.40
2022-09-10T19:56:37.380Z,21.98
2022-09-10T19:59:08.432Z,22.30
2022-09-10T20:01:40.659Z,24.10
2022-09-10T20:04:09.711Z,23.35
2022-09-10T20:06:37.200Z,23.92
2022-09-10T20:09:06.015Z,24.38
2022-09-10T20:11:35.360Z,23.48
2022-09-10T20:14:13.593Z,24.33
2022-09-10T20:16:43.157Z,23.38
2022-09-10T20:19:12.970Z,23.42
2022-09-10T20:21:39.936Z,25.88
2022-09-10T20:24:07.923Z,25.20
2022-09-10T20:26:38.013Z,26.10
2022-09-10T20:29:07.549Z,26.40
2022-09-10T20:31:35.779Z,25.48
2022-09-10T20:34:07.399Z,24.83
2022-09-10T20:36:35.513Z,27.50
2022-09-10T20:39:02.658Z,27.00
2022-09-10T20:41:30.063Z,26.90
2022-09-10T20:43:58.605Z,30.13
2022-09-10T20:46:26.642Z,30.25
2022-09-10T20:48:53.474Z,29.25
2022-09-10T20:51:20.856Z,32.42
2022-09-10T20:53:48.034Z,32.15
2022-09-10T20:56:18.091Z,32.38
2022-09-10T20:58:45.664Z,30.27
2022-09-10T21:01:20.644Z,33.33
2022-09-10T21:03:48.950Z,33.20
2022-09-10T21:06:20.877Z,33.10
2022-09-10T21:08:48.665Z,34.92
2022-09-10T21:11:20.442Z,34.00
2022-09-10T21:13:53.159Z,34.88
2022-09-10T21:16:26.882Z,34.38
2022-09-10T21:18:56.128Z,34.92
2022-09-10T21:21:27.947Z,33.38
2022-09-10T21:23:56.905Z,32.92
2022-09-10T21:26:29.481Z,33.90
2022-09-10T21:28:58.844Z,33.80
2022-09-10T21:31:27.111Z,34.05
2022-09-10T21:34:02.802Z,33.10
2022-09-10T21:36:31.581Z,31.77
2022-09-10T21:39:00.189Z,29.60
2022-09-10T21:41:33.363Z,31.80
2022-09-10T21:44:02.856Z,29.77
2022-09-10T21:46:29.846Z,32.70
2022-09-10T21:48:56.801Z,31.08
2022-09-10T21:51:23.988Z,31.00
2022-09-10T21:53:55.587Z,30.67
2022-09-10T21:56:23.792Z,30.17
2022-09-10T21:58:50.481Z,30.52
2022-09-10T22:01:22.405Z,32.58
2022-09-10T22:03:49.638Z,30.95
2022-09-10T22:06:18.972Z,30.58
2022-09-10T22:09:00.533Z,32.95
2022-09-10T22:11:36.630Z,31.65
2022-09-10T22:14:06.894Z,32.08
2022-09-10T22:16:35.062Z,31.63
2022-09-10T22:19:06.116Z,31.70
2022-09-10T22:21:33.809Z,30.58
2022-09-10T22:24:00.482Z,34.00
2022-09-10T22:26:31.278Z,32.75
2022-09-10T22:28:59.519Z,32.88
2022-09-10T22:31:29.377Z,33.97
2022-09-10T22:33:58.851Z,33.83
2022-09-10T22:36:31.050Z,34.60
2022-09-10T22:39:03.515Z,35.67
2022-09-10T22:41:32.362Z,36.03
2022-09-10T22:43:59.391Z,35.15
2022-09-10T22:46:26.838Z,34.05
2022-09-10T22:48:54.110Z,35.25
2022-09-10T22:51:23.608Z,34.08
2022-09-10T22:53:51.878Z,33.40
2022-09-10T22:56:24.967Z,31.35
2022-09-10T22:58:52.705Z,32.63
2022-09-10T23:01:23.702Z,33.35
2022-09-10T23:03:51.895Z,32.30
2022-09-10T23:06:21.976Z,31.85
2022-09-10T23:08:51.364Z,33.33
2022-09-10T23:11:29.743Z,31.42
2022-09-10T23:13:58.792Z,31.77
2022-09-10T23:16:28.700Z,32.40
2022-09-10T23:18:57.436Z,32.13
2022-09-10T23:21:25.880Z,33.17
2022-09-10T23:23:58.348Z,32.03
2022-09-10T23:26:25.877Z,34.27
2022-09-10T23:28:55.089Z,34.13
2022-09-10T23:31:24.809Z,33.35
2022-09-10T23:34:00.921Z,33.92
2022-09-10T23:36:31.161Z,35.90
2022-09-10T23:38:58.817Z,33.38
2022-09-10T23:41:26.543Z,35.72
2022-09-10T23:43:53.996Z,35.55
2022-09-10T23:46:21.722Z,35.00
2022-09-10T23:48:49.191Z,35.60
2022-09-10T23:51:19.492Z,34.97
2022-09-10T23:53:46.945Z,34.63
2022-09-10T23:56:16.996Z,36.08
2022-09-10T23:58:43.865Z,35.90
